Horizon Anchorage — KGTX — position and weather

sailwx.info

Track history (hours):
 
Tides and Currents Weather Stations Pressure Air Temp Water Temp Dewpoint Dewpoint Depression Visibility Wind Speed Wind Dir Waves Ship Positions

Horizon Anchorage

Owner: MATSON NAVIGATION COMPANY OF ALASKA, INC., Oakland, CA. More information available from US FCC via Universal Licensing System and Coast Guard Vessel Documentation Center.

Last reported at 2016-Feb-07 09:34 UTC. Time now 2016-Feb-12 01:12 UTC.
Position N 49°17' W 126°47'.

Type: Cargo ship. MMSI: 366557000.

Date/timePositionNaut miles runAvg speedWind from/ knotsBaromVisibWave heightAir tempDewpointWater temp
2016-Feb-07 09:34N 49°17' W 126°47'2020.2
2016-Feb-07 08:33N 49°05' W 126°22'2120.6
2016-Feb-07 07:34N 48°53' W 125°58'2019.7
2016-Feb-07 06:33N 48°43' W 125°32'2019.7
2016-Feb-07 05:34N 48°36' W 125°04'4219.8
2016-Feb-07 03:26N 48°20' W 124°06'1921.3
2016-Feb-07 02:34N 48°15' W 123°38'1716.8
2016-Feb-07 01:33N 48°10' W 123°14'2119.8
2016-Feb-07 00:30N 48°09' W 122°43'1920.3
2016-Feb-06 23:33N 47°53' W 122°28'1919.0
2016-Feb-06 22:33N 47°34' W 122°26'1515.0
2016-Feb-06 21:33N 47°19' W 122°27'3 2.9
2016-Feb-06 20:34N 47°16' W 122°25'0 0.0
2016-Feb-06 17:27N 47°16' W 122°25'0 0.0
2016-Feb-06 16:30N 47°16' W 122°25'0 0.0
2016-Feb-06 15:33N 47°16' W 122°25'0 0.0
2016-Feb-06 13:18N 47°16' W 122°25'0 0.0
2016-Feb-06 12:09N 47°16' W 122°25'0 0.0
2016-Feb-06 11:33N 47°16' W 122°25'0 0.0
2016-Feb-06 09:33N 47°16' W 122°25'0 0.0
2016-Feb-06 08:33N 47°16' W 122°25'0 0.0
2016-Feb-06 07:30N 47°16' W 122°25'0 0.0
2016-Feb-06 06:33N 47°16' W 122°25'0 0.0
2016-Feb-06 05:33N 47°16' W 122°25'0 0.0
2016-Feb-06 04:33N 47°16' W 122°25'0 0.0
2016-Feb-06 03:33N 47°16' W 122°25'0 0.0
2016-Feb-06 02:26N 47°16' W 122°25'0 0.0
2016-Feb-06 01:21N 47°16' W 122°25'0 0.0
2016-Feb-06 00:30N 47°16' W 122°25'0 0.0
2016-Feb-05 20:24N 47°16' W 122°25'0 0.0
2016-Feb-05 19:32N 47°16' W 122°25'0 0.3
2016-Feb-05 18:33N 47°16' W 122°25'9 9.1
2016-Feb-05 17:34N 47°25' W 122°23'1918.9
2016-Feb-05 16:34N 47°44' W 122°27'1817.9
2016-Feb-05 15:33N 48°01' W 122°38'1616.1
2016-Feb-05 14:33N 48°11' W 122°55'1817.8
2016-Feb-05 13:33N 48°09' W 123°22'1717.1
2016-Feb-05 12:33N 48°13' W 123°47'4619.5
2016-Feb-05 10:10N 48°29' W 124°53'1118.5
2016-Feb-05 09:33N 48°29' W 125°10'1818.2
2016-Feb-05 08:33N 48°38' W 125°34'1817.8
2016-Feb-05 07:34N 48°48' W 125°57'1717.3
2016-Feb-05 06:34N 48°57' W 126°19'814.0
2016-Feb-05 06:00N 49°00' W 126°30'1021.4 140 / 301018.0 5.4 5.5 8.9 5.510.6
2016-Feb-05 05:32N 49°06' W 126°42'1717.3
2016-Feb-05 04:32N 49°15' W 127°05'7717.1
2016-Feb-05 00:00N 49°54' W 128°48'10517.5 010 / 571013.0 2.2 3.5 8.9 6.7 9.4
2016-Feb-04 18:00N 51°06' W 130°48'40516.9 170 / 301007.4 2.2 6.0 8.9 5.5 8.3
2016-Feb-03 18:00N 55°24' W 139°30'9115.2 150 / 19990.010.8 6.0 8.9 6.7 6.7
2016-Feb-03 12:00N 56°12' W 141°48'10116.9 120 / 30990.8 2.2 6.1 1.1 6.1
2016-Feb-03 06:00N 57°06' W 144°24'22819.0 100 / 30994.610.8 5.0 6.1 1.1 5.6
2016-Feb-02 18:00N 58°48' W 150°48'   030 / 371004.8 2.2 5.0 3.9 1.3 6.7
2016-Jan-31 12:00N 57°48' W 147°06'11419.0 200 / 111018.110.8 5.6 3.0 5.6
2016-Jan-31 06:00N 56°54' W 144°00'22318.6 250 / 191018.010.8 3.0 5.6 3.0 6.1
2016-Jan-30 18:00N 54°54' W 138°24'21217.6 280 / 241010.810.8 3.5 6.1 3.7 7.2
2016-Jan-30 06:00N 52°48' W 133°36'34319.2 330 / 30996.7 5.4 5.5 7.2 4.9 8.9
2016-Jan-29 12:09N 49°11' W 126°34'1219.8
2016-Jan-29 11:33N 49°04' W 126°19'1919.6
2016-Jan-29 10:34N 48°52' W 125°55'1919.2
2016-Jan-29 09:33N 48°42' W 125°30'2019.7
2016-Jan-29 08:33N 48°35' W 125°03'3919.2
2016-Jan-29 06:32N 48°21' W 124°09'2020.2
2016-Jan-29 05:33N 48°16' W 123°40'1615.6
2016-Jan-29 04:34N 48°09' W 123°19'1918.5
2016-Jan-29 03:33N 48°12' W 122°51'1817.9
2016-Jan-29 02:33N 47°58' W 122°34'1818.1
2016-Jan-29 01:33N 47°41' W 122°27'1918.6
2016-Jan-29 00:34N 47°22' W 122°22'6 6.0
2016-Jan-28 23:29N 47°16' W 122°25'0 0.0
2016-Jan-28 22:29N 47°16' W 122°25'0 0.0
2016-Jan-28 18:29N 47°16' W 122°25'0 0.0
2016-Jan-28 15:19N 47°16' W 122°25'0 0.0
2016-Jan-28 12:22N 47°16' W 122°25'0 0.0
2016-Jan-28 11:33N 47°16' W 122°25'0 0.0
2016-Jan-28 10:32N 47°16' W 122°25'  
Track history (hours):
 
Tides and Currents Weather Stations Pressure Air Temp Water Temp Dewpoint Dewpoint Depression Visibility Wind Speed Wind Dir Waves Ship Positions

Horizon Anchorage

Owner: MATSON NAVIGATION COMPANY OF ALASKA, INC., Oakland, CA. More information available from US FCC via Universal Licensing System and Coast Guard Vessel Documentation Center.

Last reported at 2016-Feb-07 09:34 UTC. Time now 2016-Feb-12 01:12 UTC.
Position N 49°17' W 126°47'.

Type: Cargo ship. MMSI: 366557000.

Date/timePositionNaut miles runAvg speedWind from/ knotsBaromVisibWave heightAir tempDewpointWater temp
2016-Feb-07 09:34N 49°17' W 126°47'2020.2
2016-Feb-07 08:33N 49°05' W 126°22'2120.6
2016-Feb-07 07:34N 48°53' W 125°58'2019.7
2016-Feb-07 06:33N 48°43' W 125°32'2019.7
2016-Feb-07 05:34N 48°36' W 125°04'4219.8
2016-Feb-07 03:26N 48°20' W 124°06'1921.3
2016-Feb-07 02:34N 48°15' W 123°38'1716.8
2016-Feb-07 01:33N 48°10' W 123°14'2119.8
2016-Feb-07 00:30N 48°09' W 122°43'1920.3
2016-Feb-06 23:33N 47°53' W 122°28'1919.0
2016-Feb-06 22:33N 47°34' W 122°26'1515.0
2016-Feb-06 21:33N 47°19' W 122°27'3 2.9
2016-Feb-06 20:34N 47°16' W 122°25'0 0.0
2016-Feb-06 17:27N 47°16' W 122°25'0 0.0
2016-Feb-06 16:30N 47°16' W 122°25'0 0.0
2016-Feb-06 15:33N 47°16' W 122°25'0 0.0
2016-Feb-06 13:18N 47°16' W 122°25'0 0.0
2016-Feb-06 12:09N 47°16' W 122°25'0 0.0
2016-Feb-06 11:33N 47°16' W 122°25'0 0.0
2016-Feb-06 09:33N 47°16' W 122°25'0 0.0
2016-Feb-06 08:33N 47°16' W 122°25'0 0.0
2016-Feb-06 07:30N 47°16' W 122°25'0 0.0
2016-Feb-06 06:33N 47°16' W 122°25'0 0.0
2016-Feb-06 05:33N 47°16' W 122°25'0 0.0
2016-Feb-06 04:33N 47°16' W 122°25'0 0.0
2016-Feb-06 03:33N 47°16' W 122°25'0 0.0
2016-Feb-06 02:26N 47°16' W 122°25'0 0.0
2016-Feb-06 01:21N 47°16' W 122°25'0 0.0
2016-Feb-06 00:30N 47°16' W 122°25'0 0.0
2016-Feb-05 20:24N 47°16' W 122°25'0 0.0
2016-Feb-05 19:32N 47°16' W 122°25'0 0.3
2016-Feb-05 18:33N 47°16' W 122°25'9 9.1
2016-Feb-05 17:34N 47°25' W 122°23'1918.9
2016-Feb-05 16:34N 47°44' W 122°27'1817.9
2016-Feb-05 15:33N 48°01' W 122°38'1616.1
2016-Feb-05 14:33N 48°11' W 122°55'1817.8
2016-Feb-05 13:33N 48°09' W 123°22'1717.1
2016-Feb-05 12:33N 48°13' W 123°47'4619.5
2016-Feb-05 10:10N 48°29' W 124°53'1118.5
2016-Feb-05 09:33N 48°29' W 125°10'1818.2
2016-Feb-05 08:33N 48°38' W 125°34'1817.8
2016-Feb-05 07:34N 48°48' W 125°57'1717.3
2016-Feb-05 06:34N 48°57' W 126°19'814.0
2016-Feb-05 06:00N 49°00' W 126°30'1021.4 140 / 301018.0 5.4 5.5 8.9 5.510.6
2016-Feb-05 05:32N 49°06' W 126°42'1717.3
2016-Feb-05 04:32N 49°15' W 127°05'7717.1
2016-Feb-05 00:00N 49°54' W 128°48'10517.5 010 / 571013.0 2.2 3.5 8.9 6.7 9.4
2016-Feb-04 18:00N 51°06' W 130°48'40516.9 170 / 301007.4 2.2 6.0 8.9 5.5 8.3
2016-Feb-03 18:00N 55°24' W 139°30'9115.2 150 / 19990.010.8 6.0 8.9 6.7 6.7
2016-Feb-03 12:00N 56°12' W 141°48'10116.9 120 / 30990.8 2.2 6.1 1.1 6.1
2016-Feb-03 06:00N 57°06' W 144°24'22819.0 100 / 30994.610.8 5.0 6.1 1.1 5.6
2016-Feb-02 18:00N 58°48' W 150°48'   030 / 371004.8 2.2 5.0 3.9 1.3 6.7
2016-Jan-31 12:00N 57°48' W 147°06'11419.0 200 / 111018.110.8 5.6 3.0 5.6
2016-Jan-31 06:00N 56°54' W 144°00'22318.6 250 / 191018.010.8 3.0 5.6 3.0 6.1
2016-Jan-30 18:00N 54°54' W 138°24'21217.6 280 / 241010.810.8 3.5 6.1 3.7 7.2
2016-Jan-30 06:00N 52°48' W 133°36'34319.2 330 / 30996.7 5.4 5.5 7.2 4.9 8.9
2016-Jan-29 12:09N 49°11' W 126°34'1219.8
2016-Jan-29 11:33N 49°04' W 126°19'1919.6
2016-Jan-29 10:34N 48°52' W 125°55'1919.2
2016-Jan-29 09:33N 48°42' W 125°30'2019.7
2016-Jan-29 08:33N 48°35' W 125°03'3919.2
2016-Jan-29 06:32N 48°21' W 124°09'2020.2
2016-Jan-29 05:33N 48°16' W 123°40'1615.6
2016-Jan-29 04:34N 48°09' W 123°19'1918.5
2016-Jan-29 03:33N 48°12' W 122°51'1817.9
2016-Jan-29 02:33N 47°58' W 122°34'1818.1
2016-Jan-29 01:33N 47°41' W 122°27'1918.6
2016-Jan-29 00:34N 47°22' W 122°22'6 6.0
2016-Jan-28 23:29N 47°16' W 122°25'0 0.0
2016-Jan-28 22:29N 47°16' W 122°25'0 0.0
2016-Jan-28 18:29N 47°16' W 122°25'0 0.0
2016-Jan-28 15:19N 47°16' W 122°25'0 0.0
2016-Jan-28 12:22N 47°16' W 122°25'0 0.0
2016-Jan-28 11:33N 47°16' W 122°25'0 0.0
2016-Jan-28 10:32N 47°16' W 122°25'  

Dump ship's entire track history